Time;durP1;ratioP1;P1;durP2;ratioP2;P2;SDS_P1;SDS_P2;PMS_P1;PMS_P2;Temp;Humidity;BMP_temperature;BMP_pressure;BME280_temperature;BME280_humidity;BME280_pressure;Samples;Min_cycle;Max_cycle;Signal;HPM_P1;HPM_P2
2022/03/21 00:00:55;;;;;;;18.08;14.73;;;5.00;54.90;;;;;;5087971;28;20016;-61
2022/03/21 00:03:28;;;;;;;17.10;13.68;;;5.00;54.70;;;;;;5106629;28;20031;-61
2022/03/21 00:05:54;;;;;;;18.58;14.65;;;5.00;54.70;;;;;;5098507;28;20032;-61
2022/03/21 00:08:22;;;;;;;17.05;14.63;;;5.00;54.60;;;;;;5089892;28;20028;-61
2022/03/21 00:10:49;;;;;;;17.10;14.48;;;5.00;54.50;;;;;;5087683;28;20028;-61
2022/03/21 00:13:15;;;;;;;16.42;14.20;;;5.00;54.60;;;;;;5112673;28;20028;-61
2022/03/21 00:15:43;;;;;;;16.80;14.15;;;5.00;54.90;;;;;;5093402;28;20103;-61
2022/03/21 00:18:12;;;;;;;20.45;16.02;;;5.00;55.10;;;;;;5092034;28;20028;-61
2022/03/21 00:20:38;;;;;;;18.48;15.10;;;5.00;55.10;;;;;;5083922;28;20620;-61
2022/03/21 00:23:04;;;;;;;21.27;15.85;;;5.00;55.10;;;;;;5100624;28;20060;-61
2022/03/21 00:25:30;;;;;;;20.15;15.55;;;5.00;54.90;;;;;;5087108;28;20059;-61
2022/03/21 00:27:56;;;;;;;15.73;13.95;;;5.00;54.70;;;;;;5107478;28;20031;-61
2022/03/21 00:30:22;;;;;;;17.75;14.55;;;5.00;54.60;;;;;;5106853;28;20415;-61
2022/03/21 00:32:48;;;;;;;18.42;14.73;;;4.90;54.50;;;;;;5097260;28;20472;-61
2022/03/21 00:35:17;;;;;;;18.58;14.98;;;4.90;54.50;;;;;;5108636;28;20050;-63
2022/03/21 00:37:44;;;;;;;17.67;15.05;;;4.90;54.40;;;;;;5080983;28;20399;-61
2022/03/21 00:40:11;;;;;;;18.42;15.55;;;4.90;54.50;;;;;;5090238;28;20524;-61
2022/03/21 00:42:38;;;;;;;17.65;15.52;;;4.90;54.40;;;;;;5089708;28;20036;-61
2022/03/21 00:45:09;;;;;;;18.90;16.25;;;4.90;54.60;;;;;;5087128;28;20112;-61
2022/03/21 00:47:35;;;;;;;17.48;14.85;;;4.80;54.90;;;;;;5090543;28;20038;-61
2022/03/21 00:50:00;;;;;;;18.15;15.70;;;4.80;55.10;;;;;;5101915;28;20012;-61
2022/03/21 00:52:28;;;;;;;17.88;16.08;;;4.80;55.20;;;;;;5107696;28;20038;-61
2022/03/21 00:54:54;;;;;;;17.75;15.85;;;4.80;55.30;;;;;;5101271;28;20019;-61
2022/03/21 00:57:20;;;;;;;17.77;15.18;;;4.70;55.30;;;;;;5097246;28;20112;-63
2022/03/21 00:59:46;;;;;;;19.05;16.23;;;4.70;55.40;;;;;;5099870;28;20093;-61
2022/03/21 01:02:12;;;;;;;18.67;15.90;;;4.70;55.50;;;;;;5085737;28;20099;-61
2022/03/21 01:04:39;;;;;;;18.30;16.10;;;4.70;55.70;;;;;;5101751;28;20028;-61
2022/03/21 01:07:05;;;;;;;18.75;16.75;;;4.60;55.80;;;;;;5080988;28;20500;-61
2022/03/21 01:09:31;;;;;;;18.83;15.65;;;4.60;55.90;;;;;;5093859;28;20047;-61
2022/03/21 01:11:56;;;;;;;21.10;17.25;;;4.60;56.10;;;;;;5077469;28;20454;-61
2022/03/21 01:14:22;;;;;;;21.98;18.15;;;4.60;56.40;;;;;;5095381;28;20041;-61
2022/03/21 01:16:50;;;;;;;20.48;17.77;;;4.50;56.70;;;;;;5107743;27;20035;-61
2022/03/21 01:19:15;;;;;;;21.55;18.23;;;4.50;57.00;;;;;;5097213;27;20111;-61
2022/03/21 01:21:41;;;;;;;22.58;18.45;;;4.50;57.20;;;;;;5101424;28;20111;-61
2022/03/21 01:24:07;;;;;;;22.25;18.25;;;4.40;57.30;;;;;;5086614;28;20024;-61
2022/03/21 01:26:32;;;;;;;19.42;17.40;;;4.40;57.30;;;;;;5095661;28;20036;-61
2022/03/21 01:28:58;;;;;;;23.10;18.55;;;4.40;57.10;;;;;;5115529;27;20387;-61
2022/03/21 01:31:24;;;;;;;22.30;17.63;;;4.30;57.10;;;;;;5092915;28;20028;-61
2022/03/21 01:33:53;;;;;;;19.33;16.95;;;4.30;57.00;;;;;;5098102;28;20447;-61
2022/03/21 01:36:20;;;;;;;19.17;16.58;;;4.30;57.00;;;;;;5096856;28;20050;-61
2022/03/21 01:38:46;;;;;;;22.40;16.80;;;4.30;57.10;;;;;;5106207;28;20095;-61
2022/03/21 01:41:11;;;;;;;21.58;18.05;;;4.30;56.90;;;;;;5083486;28;20027;-61
2022/03/21 01:43:55;;;;;;;21.55;17.55;;;4.30;56.90;;;;;;5104232;28;20036;-61
2022/03/21 01:46:21;;;;;;;21.50;17.42;;;4.30;56.80;;;;;;5105869;28;20027;-61
2022/03/21 01:48:47;;;;;;;19.17;16.80;;;4.30;56.80;;;;;;5096848;28;20031;-61
2022/03/21 01:51:12;;;;;;;21.15;15.70;;;4.40;56.90;;;;;;5083888;28;20469;-61
2022/03/21 01:56:23;;;;;;;20.90;17.50;;;4.40;56.90;;;;;;5097085;28;20391;-61
2022/03/21 01:58:49;;;;;;;19.17;16.92;;;4.40;57.10;;;;;;5096363;28;20486;-61
2022/03/21 02:01:14;;;;;;;20.45;16.27;;;4.40;57.10;;;;;;5087282;28;20029;-61
2022/03/21 02:03:40;;;;;;;22.30;16.52;;;4.40;57.20;;;;;;5106551;28;20023;-61
2022/03/21 02:06:06;;;;;;;18.33;16.08;;;4.40;57.20;;;;;;5097275;28;20384;-61
2022/03/21 02:08:31;;;;;;;18.77;16.67;;;4.40;57.20;;;;;;5096298;28;20051;-61
2022/03/21 02:10:57;;;;;;;19.75;16.77;;;4.40;57.30;;;;;;5093423;28;20036;-61
2022/03/21 02:13:23;;;;;;;24.35;17.70;;;4.40;57.40;;;;;;5101713;28;20051;-61
2022/03/21 02:15:49;;;;;;;22.10;17.40;;;4.40;57.20;;;;;;5083868;28;20509;-61
2022/03/21 02:18:17;;;;;;;20.92;16.85;;;4.40;57.20;;;;;;5097599;28;20095;-61
2022/03/21 02:20:43;;;;;;;18.60;15.57;;;4.40;57.00;;;;;;5075046;28;20066;-61
2022/03/21 02:23:30;;;;;;;19.08;16.92;;;4.40;57.00;;;;;;5098024;28;20469;-61
2022/03/21 02:25:57;;;;;;;17.80;15.55;;;4.40;57.20;;;;;;5096199;28;20066;-61
2022/03/21 02:28:25;;;;;;;20.60;17.15;;;4.30;57.30;;;;;;5105752;28;20031;-61
2022/03/21 02:30:53;;;;;;;20.60;16.77;;;4.30;57.70;;;;;;5090437;28;20531;-61
2022/03/21 02:33:19;;;;;;;18.27;15.93;;;4.30;58.20;;;;;;5103706;28;20066;-61
2022/03/21 02:35:47;;;;;;;21.38;16.48;;;4.20;58.40;;;;;;5102469;28;20516;-61
2022/03/21 02:38:13;;;;;;;21.42;16.50;;;4.20;58.50;;;;;;5103522;28;20028;-61
2022/03/21 02:40:40;;;;;;;19.25;16.05;;;4.20;58.50;;;;;;5086814;28;20020;-61
2022/03/21 02:43:05;;;;;;;19.30;15.73;;;4.20;58.60;;;;;;5095803;28;20052;-61
2022/03/21 02:45:31;;;;;;;18.73;15.63;;;4.20;58.30;;;;;;5101376;28;20473;-61
2022/03/21 02:47:57;;;;;;;20.48;17.33;;;4.20;58.00;;;;;;5104716;28;20540;-61
2022/03/21 02:50:45;;;;;;;18.45;15.35;;;4.20;58.10;;;;;;5089934;28;20031;-61
2022/03/21 02:53:11;;;;;;;18.50;15.43;;;4.20;58.30;;;;;;5079680;28;20020;-61
2022/03/21 02:55:40;;;;;;;18.10;15.52;;;4.10;58.40;;;;;;5089992;28;20507;-61
2022/03/21 02:58:05;;;;;;;18.88;16.38;;;4.10;58.50;;;;;;5102681;28;20034;-61
2022/03/21 03:00:31;;;;;;;18.02;16.17;;;4.10;58.60;;;;;;5087625;28;20482;-61
2022/03/21 03:02:56;;;;;;;20.20;16.75;;;4.00;58.80;;;;;;5097307;28;20510;-61
2022/03/21 03:05:22;;;;;;;19.67;17.45;;;4.00;59.30;;;;;;5101085;28;20035;-61
2022/03/21 03:07:48;;;;;;;19.00;16.20;;;4.00;59.50;;;;;;5094161;28;20028;-61
2022/03/21 03:10:14;;;;;;;20.38;16.90;;;4.00;59.70;;;;;;5102379;28;20021;-61
2022/03/21 03:12:40;;;;;;;20.25;16.35;;;3.90;59.70;;;;;;5090430;28;20105;-61
2022/03/21 03:15:07;;;;;;;22.15;17.35;;;3.90;59.60;;;;;;5112761;28;20023;-61
2022/03/21 03:17:32;;;;;;;19.25;16.67;;;3.90;59.60;;;;;;5084322;28;20028;-61
2022/03/21 03:19:58;;;;;;;19.52;17.25;;;3.90;59.80;;;;;;5091470;28;20089;-61
2022/03/21 03:22:25;;;;;;;21.02;16.88;;;3.90;59.90;;;;;;5087898;28;20019;-61
2022/03/21 03:24:52;;;;;;;19.27;17.27;;;3.80;60.00;;;;;;5091306;28;20039;-61
2022/03/21 03:27:17;;;;;;;20.98;18.70;;;3.80;60.20;;;;;;5104848;28;20032;-61
2022/03/21 03:29:43;;;;;;;19.38;17.15;;;3.80;60.30;;;;;;5113309;28;20357;-61
2022/03/21 03:32:09;;;;;;;20.45;18.17;;;3.70;60.30;;;;;;5095458;28;20032;-61
2022/03/21 03:34:35;;;;;;;22.65;18.33;;;3.70;60.40;;;;;;5101011;28;20027;-61
2022/03/21 03:37:01;;;;;;;20.30;16.40;;;3.70;60.40;;;;;;5109263;28;20051;-61
2022/03/21 03:39:28;;;;;;;19.98;16.58;;;3.70;60.30;;;;;;5076344;28;20040;-61
2022/03/21 03:41:54;;;;;;;20.92;17.40;;;3.70;60.30;;;;;;5089672;28;20093;-61
2022/03/21 03:44:22;;;;;;;18.80;16.50;;;3.70;60.50;;;;;;5112283;28;20480;-61
2022/03/21 03:46:48;;;;;;;21.00;18.08;;;3.70;60.90;;;;;;5098231;28;20164;-61
2022/03/21 03:49:14;;;;;;;21.02;17.30;;;3.70;61.10;;;;;;5077720;28;20103;-61
2022/03/21 03:51:39;;;;;;;19.52;17.48;;;3.60;61.30;;;;;;5078811;28;20028;-61
2022/03/21 03:54:05;;;;;;;19.33;17.30;;;3.60;61.40;;;;;;5073231;28;20036;-61
2022/03/21 03:56:31;;;;;;;19.23;17.02;;;3.60;61.60;;;;;;5087334;28;20031;-61
2022/03/21 03:58:56;;;;;;;19.85;17.63;;;3.60;61.90;;;;;;5111837;28;20028;-61
2022/03/21 04:01:22;;;;;;;22.10;17.08;;;3.60;61.90;;;;;;5092000;28;20030;-61
2022/03/21 04:03:48;;;;;;;24.38;18.83;;;3.50;61.80;;;;;;5100493;28;20024;-61
2022/03/21 04:06:18;;;;;;;18.75;16.20;;;3.60;61.90;;;;;;5091287;28;20051;-61
2022/03/21 04:08:45;;;;;;;22.93;17.70;;;3.60;62.00;;;;;;5095750;28;20031;-61
2022/03/21 04:11:11;;;;;;;20.52;17.48;;;3.60;62.10;;;;;;5088697;28;20066;-61
2022/03/21 04:13:37;;;;;;;21.73;19.17;;;3.60;62.10;;;;;;5110955;28;20032;-61
2022/03/21 04:16:04;;;;;;;21.65;17.90;;;3.60;62.10;;;;;;5098176;28;20036;-61
2022/03/21 04:18:29;;;;;;;19.27;16.65;;;3.60;62.10;;;;;;5082088;28;20036;-61
2022/03/21 04:20:55;;;;;;;20.85;18.30;;;3.60;62.10;;;;;;5094448;28;20034;-61
2022/03/21 04:23:21;;;;;;;19.95;17.50;;;3.60;62.10;;;;;;5108934;28;20054;-61
2022/03/21 04:25:47;;;;;;;19.73;17.15;;;3.70;62.30;;;;;;5102469;28;20119;-61
2022/03/21 04:28:14;;;;;;;21.27;18.30;;;3.70;62.30;;;;;;5102455;28;20518;-61
2022/03/21 04:30:41;;;;;;;20.17;17.15;;;3.70;62.40;;;;;;5098517;28;20024;-61
2022/03/21 04:33:12;;;;;;;20.65;17.70;;;3.70;62.50;;;;;;5112974;28;20064;-61
2022/03/21 04:35:38;;;;;;;21.20;17.63;;;3.80;62.70;;;;;;5109116;28;20103;-61
2022/03/21 04:38:15;;;;;;;24.45;18.30;;;3.80;62.70;;;;;;5084569;28;20408;-61
2022/03/21 04:40:40;;;;;;;20.55;17.42;;;3.80;62.90;;;;;;5094623;28;20480;-61
2022/03/21 04:43:08;;;;;;;23.23;17.67;;;3.80;62.90;;;;;;5099446;28;20027;-61
2022/03/21 04:45:34;;;;;;;20.70;18.45;;;3.90;63.20;;;;;;5106584;28;20028;-61
2022/03/21 04:48:00;;;;;;;19.88;17.50;;;3.90;63.20;;;;;;5091126;28;20433;-61
2022/03/21 04:50:25;;;;;;;20.13;16.75;;;4.00;63.40;;;;;;5111690;28;20509;-61
2022/03/21 04:52:51;;;;;;;18.23;16.25;;;4.10;63.40;;;;;;5104070;28;20034;-61
2022/03/21 04:55:16;;;;;;;19.50;17.40;;;4.10;63.30;;;;;;5103731;28;20050;-61
2022/03/21 04:57:42;;;;;;;18.33;16.23;;;4.20;63.20;;;;;;5093226;28;20028;-61
2022/03/21 05:00:08;;;;;;;19.92;17.33;;;4.30;63.20;;;;;;5108329;28;20026;-61
2022/03/21 05:02:34;;;;;;;20.73;17.50;;;4.40;63.20;;;;;;5092220;28;20487;-61
2022/03/21 05:05:00;;;;;;;20.75;17.42;;;4.50;63.30;;;;;;5091657;28;20031;-61
2022/03/21 05:07:26;;;;;;;20.10;17.42;;;4.60;63.50;;;;;;5090887;28;20392;-61
2022/03/21 05:09:52;;;;;;;19.80;16.85;;;4.70;63.50;;;;;;5108100;28;20032;-61
2022/03/21 05:12:18;;;;;;;21.05;17.50;;;4.80;63.60;;;;;;5092803;28;20101;-61
2022/03/21 05:14:44;;;;;;;22.63;18.10;;;5.00;63.50;;;;;;5109934;28;20023;-61
2022/03/21 05:17:10;;;;;;;22.08;18.15;;;5.20;63.30;;;;;;5092486;28;20419;-61
2022/03/21 05:19:36;;;;;;;19.00;17.10;;;5.40;63.00;;;;;;5087796;28;20473;-61
2022/03/21 05:22:06;;;;;;;18.88;15.95;;;5.70;62.40;;;;;;5091215;28;20059;-61
2022/03/21 05:32:47;;;;;;;16.77;14.77;;;6.80;59.80;;;;;;5106897;28;20092;-61
2022/03/21 05:37:57;;;;;;;17.70;15.52;;;7.40;58.30;;;;;;5087303;28;20095;-61
2022/03/21 05:40:31;;;;;;;17.65;15.25;;;7.70;57.70;;;;;;5091282;28;20055;-61
2022/03/21 05:42:57;;;;;;;18.70;16.00;;;7.90;57.30;;;;;;5106084;28;20035;-61
2022/03/21 05:45:23;;;;;;;17.13;14.82;;;7.90;57.00;;;;;;5108435;28;20127;-61
2022/03/21 05:50:37;;;;;;;18.73;16.00;;;8.10;56.50;;;;;;5090135;28;20028;-61
2022/03/21 05:53:04;;;;;;;17.35;15.02;;;8.10;56.60;;;;;;5088441;28;20028;-61
2022/03/21 05:55:32;;;;;;;19.83;17.30;;;8.10;56.50;;;;;;5079098;28;20080;-61
2022/03/21 05:57:58;;;;;;;18.98;16.45;;;8.00;56.60;;;;;;5082255;28;20454;-61
2022/03/21 06:00:25;;;;;;;18.52;15.70;;;8.00;56.60;;;;;;5098137;28;20437;-61
2022/03/21 06:02:51;;;;;;;18.00;15.15;;;8.30;56.70;;;;;;5093176;28;20028;-61
2022/03/21 06:05:21;;;;;;;17.58;15.65;;;8.70;56.60;;;;;;5097517;28;20066;-61
2022/03/21 06:07:48;;;;;;;15.73;14.07;;;9.10;55.70;;;;;;5074900;28;20163;-61
2022/03/21 06:10:14;;;;;;;16.25;14.48;;;9.50;55.40;;;;;;5082807;28;20047;-61
2022/03/21 06:12:40;;;;;;;16.50;14.45;;;9.90;54.70;;;;;;5089253;28;20020;-61
2022/03/21 06:15:07;;;;;;;17.20;15.00;;;10.40;54.30;;;;;;5080901;28;20036;-61
2022/03/21 06:17:43;;;;;;;16.35;14.57;;;10.90;53.60;;;;;;5083328;28;20072;-61
2022/03/21 06:20:11;;;;;;;19.55;16.27;;;11.40;52.40;;;;;;5090014;28;20448;-61
2022/03/21 06:22:37;;;;;;;18.10;16.20;;;11.70;51.40;;;;;;5078491;28;20036;-62
2022/03/21 06:25:04;;;;;;;18.83;15.63;;;11.80;50.60;;;;;;5092848;28;20024;-61
2022/03/21 06:27:31;;;;;;;19.52;17.25;;;11.70;50.50;;;;;;5084353;28;20031;-61
2022/03/21 06:29:56;;;;;;;18.10;16.20;;;11.30;50.80;;;;;;5082643;28;20499;-61
2022/03/21 06:32:23;;;;;;;18.83;16.73;;;10.80;51.50;;;;;;5087694;28;20020;-63
2022/03/21 06:34:49;;;;;;;19.02;17.02;;;10.30;52.10;;;;;;5084057;28;20476;-62
2022/03/21 06:37:15;;;;;;;20.92;17.42;;;9.80;53.00;;;;;;5046813;28;1190377;-62
2022/03/21 06:39:41;;;;;;;18.95;16.98;;;9.40;53.90;;;;;;5089192;28;20020;-62
2022/03/21 06:42:08;;;;;;;20.75;17.80;;;9.00;54.80;;;;;;5100650;28;20024;-62
2022/03/21 06:44:34;;;;;;;20.65;18.40;;;8.80;55.60;;;;;;5111141;28;20019;-62
2022/03/21 06:47:00;;;;;;;22.05;19.10;;;8.60;56.50;;;;;;5083780;28;20081;-62
2022/03/21 06:49:29;;;;;;;19.27;17.27;;;8.40;57.00;;;;;;5111968;28;20031;-62
2022/03/21 06:51:56;;;;;;;20.05;17.80;;;8.20;57.50;;;;;;5087647;28;20166;-62
2022/03/21 06:54:22;;;;;;;22.55;17.48;;;8.10;57.90;;;;;;5091998;28;20027;-62
2022/03/21 06:56:48;;;;;;;18.75;16.75;;;8.00;58.10;;;;;;5081167;28;20081;-62
2022/03/21 06:59:13;;;;;;;20.00;17.88;;;8.00;58.50;;;;;;5091864;28;20091;-62
2022/03/21 07:01:39;;;;;;;18.70;15.98;;;7.90;58.60;;;;;;5085195;28;20020;-62
2022/03/21 07:04:05;;;;;;;19.90;15.70;;;7.90;58.90;;;;;;5091794;28;20107;-62
2022/03/21 07:06:31;;;;;;;17.33;14.68;;;7.90;59.10;;;;;;5074938;28;20116;-62
2022/03/21 07:08:56;;;;;;;21.17;15.75;;;7.90;59.20;;;;;;5077680;28;20036;-62
2022/03/21 07:11:22;;;;;;;17.73;14.38;;;7.90;59.30;;;;;;5075550;28;20028;-62
2022/03/21 07:13:49;;;;;;;16.77;15.05;;;7.90;59.30;;;;;;5083091;28;20020;-62
2022/03/21 07:16:16;;;;;;;18.30;15.40;;;7.90;59.40;;;;;;5087195;28;20028;-62
2022/03/21 07:18:45;;;;;;;19.90;15.70;;;7.90;59.40;;;;;;5080866;28;21172;-62
2022/03/21 07:21:15;;;;;;;16.00;14.30;;;7.90;59.60;;;;;;5087045;28;20392;-62
2022/03/21 07:23:41;;;;;;;18.58;15.43;;;7.90;59.50;;;;;;5075745;28;20127;-62
2022/03/21 07:26:06;;;;;;;16.00;14.32;;;7.90;59.50;;;;;;5077716;28;20107;-62
2022/03/21 07:28:32;;;;;;;16.80;14.77;;;7.90;59.50;;;;;;5075998;28;20480;-62
2022/03/21 07:30:58;;;;;;;15.52;13.90;;;7.90;59.60;;;;;;5075308;28;20095;-62
2022/03/21 07:33:27;;;;;;;14.93;13.30;;;8.00;59.60;;;;;;5074996;28;20035;-62
2022/03/21 07:35:52;;;;;;;14.80;13.23;;;8.00;59.70;;;;;;5073101;28;20033;-65
2022/03/21 07:38:19;;;;;;;17.23;13.80;;;8.00;59.70;;;;;;5079897;28;20027;-64
2022/03/21 07:40:49;;;;;;;16.88;13.93;;;8.00;59.60;;;;;;5080997;28;20380;-63
2022/03/21 07:43:15;;;;;;;16.90;14.32;;;8.00;59.60;;;;;;5073173;28;20016;-63
2022/03/21 07:48:28;;;;;;;14.52;12.95;;;8.10;59.60;;;;;;5069846;28;20062;-64
2022/03/21 07:50:54;;;;;;;13.50;12.05;;;8.10;59.60;;;;;;5064143;28;20112;-62
2022/03/21 07:53:20;;;;;;;14.38;12.57;;;8.10;59.50;;;;;;5076338;28;20055;-64
2022/03/21 07:55:47;;;;;;;15.55;13.27;;;8.10;59.50;;;;;;5073534;28;20190;-63
2022/03/21 07:58:12;;;;;;;16.33;13.48;;;8.10;59.60;;;;;;5080237;28;20140;-63
2022/03/21 08:00:41;;;;;;;15.13;12.48;;;8.20;59.60;;;;;;5074278;28;20032;-65
2022/03/21 08:03:14;;;;;;;14.43;12.07;;;8.20;59.60;;;;;;5076973;28;20115;-63
2022/03/21 08:05:40;;;;;;;14.25;12.07;;;8.20;59.50;;;;;;5077865;28;20043;-64
2022/03/21 08:08:07;;;;;;;12.45;11.15;;;8.20;59.50;;;;;;5078696;28;20023;-65
2022/03/21 08:10:33;;;;;;;12.48;10.82;;;8.20;59.50;;;;;;5075806;28;20035;-65
2022/03/21 08:12:59;;;;;;;11.90;10.63;;;8.20;59.50;;;;;;5072652;28;20021;-64
2022/03/21 08:15:28;;;;;;;12.93;10.35;;;8.30;59.70;;;;;;5073332;28;20761;-65
2022/03/21 08:18:01;;;;;;;12.60;10.88;;;8.30;59.80;;;;;;5074339;28;20028;-64
2022/03/21 08:20:35;;;;;;;12.98;10.55;;;8.30;59.90;;;;;;5072343;28;20090;-63
2022/03/21 08:23:02;;;;;;;11.20;10.02;;;8.30;60.00;;;;;;5074901;28;20108;-64
2022/03/21 08:25:29;;;;;;;11.70;10.07;;;8.30;59.90;;;;;;5075741;28;20024;-64
2022/03/21 08:27:55;;;;;;;11.60;9.93;;;8.30;60.00;;;;;;5079740;28;20511;-63
2022/03/21 08:30:21;;;;;;;12.00;10.18;;;8.30;59.90;;;;;;5068609;28;20114;-64
2022/03/21 08:32:48;;;;;;;10.90;9.60;;;8.30;60.00;;;;;;5078914;28;20021;-63
2022/03/21 08:35:16;;;;;;;10.65;9.55;;;8.30;59.90;;;;;;5070686;28;20022;-63
2022/03/21 08:37:42;;;;;;;10.07;9.07;;;8.30;59.80;;;;;;5076495;28;20075;-65
2022/03/21 08:40:09;;;;;;;10.32;9.20;;;8.30;59.80;;;;;;5075641;28;20496;-64
2022/03/21 08:42:36;;;;;;;10.82;9.38;;;8.40;60.00;;;;;;5072308;28;20028;-64
2022/03/21 08:45:03;;;;;;;11.27;9.02;;;8.40;59.90;;;;;;5061501;28;20054;-63
2022/03/21 08:47:28;;;;;;;9.32;8.32;;;8.40;59.80;;;;;;5067531;28;20028;-64
2022/03/21 08:49:54;;;;;;;9.52;8.10;;;8.40;59.60;;;;;;5069892;28;20029;-63
2022/03/21 08:52:19;;;;;;;9.35;8.45;;;8.40;59.50;;;;;;5073613;28;20030;-63
2022/03/21 08:54:46;;;;;;;10.23;8.18;;;8.50;59.50;;;;;;5077500;28;20024;-63
2022/03/21 08:57:12;;;;;;;7.55;6.30;;;8.50;59.30;;;;;;5073087;28;20024;-64
2022/03/21 08:59:38;;;;;;;6.95;6.07;;;8.50;59.30;;;;;;5067991;28;20024;-63
2022/03/21 09:02:08;;;;;;;6.93;6.22;;;8.50;59.20;;;;;;5064786;28;20712;-62
2022/03/21 09:04:35;;;;;;;7.03;6.30;;;8.50;59.20;;;;;;5073538;28;20110;-64
2022/03/21 09:07:01;;;;;;;7.18;6.05;;;8.50;59.10;;;;;;5076167;28;20039;-64
2022/03/21 09:09:27;;;;;;;6.85;5.60;;;8.50;58.90;;;;;;5080063;28;20451;-63
2022/03/21 09:11:53;;;;;;;6.75;5.50;;;8.60;59.00;;;;;;5085225;28;20062;-62
2022/03/21 09:14:19;;;;;;;6.85;6.15;;;8.60;59.10;;;;;;5079982;28;20495;-63
2022/03/21 09:16:45;;;;;;;7.47;6.07;;;8.60;59.10;;;;;;5077822;28;20123;-63
2022/03/21 09:19:11;;;;;;;5.72;5.13;;;8.60;59.10;;;;;;5071345;28;20123;-63
2022/03/21 09:21:37;;;;;;;6.47;5.18;;;8.70;58.90;;;;;;5078071;28;20533;-63
2022/03/21 09:24:04;;;;;;;5.80;4.93;;;8.70;59.00;;;;;;5079646;28;20035;-63
2022/03/21 09:26:30;;;;;;;5.65;4.82;;;8.70;59.20;;;;;;5076710;28;20028;-63
2022/03/21 09:29:05;;;;;;;5.72;5.03;;;8.70;59.20;;;;;;5076820;28;20028;-62
2022/03/21 09:31:31;;;;;;;5.15;4.47;;;8.70;59.20;;;;;;5077866;28;20028;-62
2022/03/21 09:33:58;;;;;;;6.80;4.80;;;8.70;59.30;;;;;;5081786;28;20887;-62
2022/03/21 09:36:24;;;;;;;6.28;5.00;;;8.70;59.20;;;;;;5077226;28;22823;-63
2022/03/21 09:38:50;;;;;;;6.50;5.15;;;8.80;60.00;;;;;;5081024;28;20027;-62
2022/03/21 09:41:22;;;;;;;5.30;4.80;;;8.80;59.10;;;;;;5079288;28;20050;-63
2022/03/21 09:43:53;;;;;;;6.55;5.07;;;8.80;59.00;;;;;;5081687;28;20067;-62
2022/03/21 09:46:20;;;;;;;6.03;4.63;;;8.80;59.00;;;;;;5076958;28;20068;-63
2022/03/21 09:48:50;;;;;;;5.90;4.43;;;8.80;58.90;;;;;;5079186;28;20024;-63
2022/03/21 09:51:27;;;;;;;5.83;4.87;;;8.90;59.00;;;;;;5069017;28;20020;-62
2022/03/21 09:53:59;;;;;;;4.90;4.38;;;8.90;58.80;;;;;;5071868;28;20085;-64
2022/03/21 09:56:26;;;;;;;6.72;4.80;;;8.90;58.40;;;;;;5067048;28;20049;-64
2022/03/21 09:59:01;;;;;;;7.10;4.95;;;9.00;58.20;;;;;;5089552;28;20055;-64
2022/03/21 10:01:29;;;;;;;7.38;4.05;;;9.00;58.10;;;;;;5074255;28;20028;-64
2022/03/21 10:03:55;;;;;;;6.18;4.50;;;9.10;58.20;;;;;;5072012;28;20131;-64
2022/03/21 10:06:32;;;;;;;5.03;4.38;;;9.10;57.80;;;;;;5075177;28;20090;-64
2022/03/21 10:09:04;;;;;;;5.78;4.47;;;9.10;57.50;;;;;;5085499;28;20028;-63
2022/03/21 10:11:30;;;;;;;6.53;4.53;;;9.20;57.40;;;;;;5078801;28;20484;-64
2022/03/21 10:13:56;;;;;;;5.18;4.28;;;9.20;57.10;;;;;;5072462;28;20314;-64
2022/03/21 10:16:22;;;;;;;4.47;3.97;;;9.30;57.10;;;;;;5077307;28;20032;-64
2022/03/21 10:18:53;;;;;;;4.85;3.60;;;9.30;56.90;;;;;;5076012;28;20486;-64
2022/03/21 10:21:19;;;;;;;;;;;9.40;57.20;;;;;;5070979;28;20104;-63
2022/03/21 10:24:02;;;;;;;4.88;3.53;;;9.30;57.10;;;;;;5076742;28;19916;-64
2022/03/21 10:26:31;;;;;;;4.97;3.65;;;9.30;57.20;;;;;;5073996;28;20059;-64
2022/03/21 10:29:05;;;;;;;4.75;3.90;;;9.40;57.20;;;;;;5075423;28;20029;-64
2022/03/21 10:31:46;;;;;;;3.95;3.35;;;9.40;57.10;;;;;;5075761;28;20112;-62
2022/03/21 10:34:17;;;;;;;4.57;3.42;;;9.40;56.90;;;;;;5074703;28;20040;-63
2022/03/21 10:37:04;;;;;;;6.45;5.38;;;9.50;57.10;;;;;;5073306;28;20125;-61
2022/03/21 10:39:32;;;;;;;4.78;3.95;;;9.50;56.80;;;;;;5078029;28;20540;-62
2022/03/21 10:42:03;;;;;;;4.38;3.80;;;9.50;56.50;;;;;;5075132;28;20032;-63
2022/03/21 10:44:31;;;;;;;5.38;3.88;;;9.60;56.40;;;;;;5075233;28;20097;-62
2022/03/21 10:46:59;;;;;;;4.80;3.67;;;9.60;56.50;;;;;;5073548;28;20047;-62
2022/03/21 10:49:37;;;;;;;4.68;3.72;;;9.60;56.10;;;;;;5071245;28;20032;-62
2022/03/21 10:52:05;;;;;;;4.93;3.40;;;9.70;55.90;;;;;;5070161;28;20056;-62
2022/03/21 10:54:41;;;;;;;3.88;3.47;;;9.70;56.30;;;;;;5075056;28;20029;-62
2022/03/21 10:57:25;;;;;;;3.97;3.53;;;9.80;55.90;;;;;;5067515;28;20031;-60
2022/03/21 10:59:51;;;;;;;6.07;3.85;;;9.80;55.90;;;;;;5069959;28;20034;-62
2022/03/21 11:02:17;;;;;;;5.68;3.55;;;9.80;55.70;;;;;;5069833;28;20032;-60
2022/03/21 11:04:44;;;;;;;5.28;4.10;;;9.90;55.70;;;;;;5077208;28;20052;-60
2022/03/21 11:07:12;;;;;;;5.55;3.40;;;9.90;56.00;;;;;;5071236;28;20052;-60
2022/03/21 11:09:42;;;;;;;5.28;3.90;;;10.00;56.20;;;;;;5077793;28;20028;-61
2022/03/21 11:12:09;;;;;;;4.70;3.70;;;10.00;56.20;;;;;;5079131;28;20029;-60
2022/03/21 11:14:41;;;;;;;4.38;3.22;;;10.00;56.00;;;;;;5077252;28;20056;-60
2022/03/21 11:17:08;;;;;;;4.57;3.53;;;10.00;55.90;;;;;;5081119;28;20058;-62
2022/03/21 11:19:34;;;;;;;3.63;3.10;;;10.10;56.00;;;;;;5072886;28;20035;-63
2022/03/21 11:22:01;;;;;;;6.13;3.33;;;10.10;56.20;;;;;;5075455;28;20028;-62
2022/03/21 11:24:31;;;;;;;4.57;3.30;;;10.10;55.80;;;;;;5082383;28;20068;-63
2022/03/21 11:27:16;;;;;;;3.70;3.30;;;10.10;55.50;;;;;;5079807;28;20036;-63
2022/03/21 11:29:53;;;;;;;5.22;3.28;;;10.10;55.50;;;;;;5077705;28;20150;-64
2022/03/21 11:32:34;;;;;;;4.72;3.60;;;10.10;55.70;;;;;;5077165;28;20024;-63
2022/03/21 11:35:15;;;;;;;5.10;3.40;;;10.20;56.30;;;;;;5077926;28;20028;-62
2022/03/21 11:37:42;;;;;;;7.30;3.60;;;10.20;55.90;;;;;;5078383;28;20047;-63
2022/03/21 11:40:28;;;;;;;5.50;3.35;;;10.20;56.20;;;;;;5076332;28;20042;-63
2022/03/21 11:43:21;;;;;;;3.70;2.83;;;10.20;55.80;;;;;;5086128;28;20040;-63
2022/03/21 11:45:55;;;;;;;5.43;2.88;;;10.20;55.20;;;;;;5075515;28;20445;-63
2022/03/21 11:48:23;;;;;;;4.47;3.17;;;10.30;54.90;;;;;;5079868;28;20044;-63
2022/03/21 11:51:00;;;;;;;4.07;3.10;;;10.40;55.30;;;;;;5076206;28;20055;-63
2022/03/21 11:53:28;;;;;;;3.40;2.90;;;10.40;55.90;;;;;;5075670;28;20111;-63
2022/03/21 11:55:54;;;;;;;4.10;3.08;;;10.40;54.70;;;;;;5072092;28;20256;-63
2022/03/21 11:58:22;;;;;;;6.72;3.20;;;10.40;54.70;;;;;;5081835;28;20115;-63
2022/03/21 12:01:24;;;;;;;3.83;3.10;;;10.50;55.10;;;;;;5079147;28;20044;-63
2022/03/21 12:03:51;;;;;;;3.83;3.15;;;10.50;55.40;;;;;;5080411;28;20059;-63
2022/03/21 12:06:29;;;;;;;5.13;3.50;;;10.50;55.70;;;;;;5078500;28;20043;-63
2022/03/21 12:09:14;;;;;;;5.20;3.90;;;10.50;56.10;;;;;;5076994;28;20931;-64
2022/03/21 12:11:56;;;;;;;5.80;3.80;;;10.40;56.50;;;;;;5066557;28;20029;-64
2022/03/21 12:14:42;;;;;;;5.18;3.70;;;10.40;56.40;;;;;;5068776;28;20093;-62
2022/03/21 12:17:13;;;;;;;6.63;3.50;;;10.40;56.50;;;;;;5078824;28;20024;-62
2022/03/21 12:19:45;;;;;;;4.25;3.40;;;10.40;56.30;;;;;;5072717;28;20099;-61
2022/03/21 12:22:29;;;;;;;5.78;3.55;;;10.50;56.00;;;;;;5074648;28;20042;-61
2022/03/21 12:25:03;;;;;;;5.85;3.45;;;10.50;56.10;;;;;;5074541;28;20107;-62
2022/03/21 12:27:35;;;;;;;5.65;3.40;;;10.50;56.40;;;;;;5070088;28;20404;-63
2022/03/21 12:30:20;;;;;;;4.97;3.55;;;10.60;56.80;;;;;;5074086;28;20115;-62
2022/03/21 12:33:09;;;;;;;5.25;3.42;;;10.60;56.50;;;;;;5076817;28;20115;-61
2022/03/21 12:35:35;;;;;;;5.32;3.50;;;10.60;56.50;;;;;;5072184;28;20032;-62
2022/03/21 12:38:03;;;;;;;5.65;3.53;;;10.60;56.70;;;;;;5076343;28;20467;-62
2022/03/21 12:40:30;;;;;;;5.47;3.45;;;10.70;56.70;;;;;;5072896;28;20027;-61
2022/03/21 12:43:00;;;;;;;4.65;3.45;;;10.70;57.10;;;;;;5082412;28;20052;-62
2022/03/21 12:45:31;;;;;;;5.28;3.50;;;10.70;57.40;;;;;;5077983;28;20142;-61
2022/03/21 12:48:05;;;;;;;5.30;3.50;;;10.70;57.70;;;;;;5080387;28;20039;-63
2022/03/21 12:50:32;;;;;;;4.88;3.60;;;10.60;58.00;;;;;;5079586;28;20040;-62
2022/03/21 12:53:01;;;;;;;4.63;3.90;;;10.60;58.20;;;;;;5074805;28;20480;-63
2022/03/21 12:55:28;;;;;;;5.63;3.90;;;10.60;58.30;;;;;;5078697;28;20115;-63
2022/03/21 12:57:59;;;;;;;4.88;3.58;;;10.60;58.70;;;;;;5073430;28;20025;-62
2022/03/21 13:00:34;;;;;;;;;;;10.60;58.50;;;;;;5069139;28;20037;-60
2022/03/21 13:03:10;;;;;;;4.55;3.17;;;10.60;58.10;;;;;;5075897;28;19982;-64
2022/03/21 13:11:22;;;;;;;4.95;3.30;;;10.70;57.90;;;;;;5076009;28;20534;-60
2022/03/21 13:13:55;;;;;;;4.38;3.50;;;10.80;58.20;;;;;;5080382;28;20032;-60